sensor_id;sensor_type;location;lat;lon;timestamp;P1;durP1;ratioP1;P2;durP2;ratioP2
19107;SDS011;9686;48.832;9.126;2023-04-25T00:00:16;2.47;;;1.70;;
19107;SDS011;9686;48.832;9.126;2023-04-25T00:02:42;2.03;;;1.63;;
19107;SDS011;9686;48.832;9.126;2023-04-25T00:05:08;2.50;;;1.40;;
19107;SDS011;9686;48.832;9.126;2023-04-25T00:07:34;1.83;;;1.73;;
19107;SDS011;9686;48.832;9.126;2023-04-25T00:09:59;1.90;;;1.60;;
19107;SDS011;9686;48.832;9.126;2023-04-25T00:12:25;3.20;;;1.87;;
19107;SDS011;9686;48.832;9.126;2023-04-25T00:14:53;1.80;;;1.60;;
19107;SDS011;9686;48.832;9.126;2023-04-25T00:17:18;3.47;;;1.60;;
19107;SDS011;9686;48.832;9.126;2023-04-25T00:19:44;3.13;;;2.03;;
19107;SDS011;9686;48.832;9.126;2023-04-25T00:22:11;3.73;;;1.60;;
19107;SDS011;9686;48.832;9.126;2023-04-25T00:24:37;2.03;;;1.43;;
19107;SDS011;9686;48.832;9.126;2023-04-25T00:27:02;1.77;;;1.53;;
19107;SDS011;9686;48.832;9.126;2023-04-25T00:29:27;2.90;;;1.30;;
19107;SDS011;9686;48.832;9.126;2023-04-25T00:31:53;2.23;;;1.50;;
19107;SDS011;9686;48.832;9.126;2023-04-25T00:34:18;3.53;;;1.43;;
19107;SDS011;9686;48.832;9.126;2023-04-25T00:36:43;3.37;;;1.40;;
19107;SDS011;9686;48.832;9.126;2023-04-25T00:39:08;1.43;;;1.30;;
19107;SDS011;9686;48.832;9.126;2023-04-25T00:41:34;2.37;;;1.30;;
19107;SDS011;9686;48.832;9.126;2023-04-25T00:43:59;2.50;;;1.40;;
19107;SDS011;9686;48.832;9.126;2023-04-25T00:46:26;1.53;;;1.40;;
19107;SDS011;9686;48.832;9.126;2023-04-25T00:48:51;1.47;;;1.37;;
19107;SDS011;9686;48.832;9.126;2023-04-25T00:51:19;1.27;;;1.17;;
19107;SDS011;9686;48.832;9.126;2023-04-25T00:53:45;1.87;;;1.50;;
19107;SDS011;9686;48.832;9.126;2023-04-25T00:56:12;3.00;;;1.40;;
19107;SDS011;9686;48.832;9.126;2023-04-25T00:58:37;1.50;;;1.30;;
19107;SDS011;9686;48.832;9.126;2023-04-25T01:01:03;1.57;;;1.47;;
19107;SDS011;9686;48.832;9.126;2023-04-25T01:03:30;2.13;;;1.40;;
19107;SDS011;9686;48.832;9.126;2023-04-25T01:05:58;2.10;;;1.37;;
19107;SDS011;9686;48.832;9.126;2023-04-25T01:08:24;1.60;;;1.50;;
19107;SDS011;9686;48.832;9.126;2023-04-25T01:10:50;2.00;;;1.80;;
19107;SDS011;9686;48.832;9.126;2023-04-25T01:13:15;1.67;;;1.57;;
19107;SDS011;9686;48.832;9.126;2023-04-25T01:15:41;2.83;;;1.67;;
19107;SDS011;9686;48.832;9.126;2023-04-25T01:18:06;2.63;;;1.43;;
19107;SDS011;9686;48.832;9.126;2023-04-25T01:20:32;2.87;;;1.80;;
19107;SDS011;9686;48.832;9.126;2023-04-25T01:22:58;1.87;;;1.60;;
19107;SDS011;9686;48.832;9.126;2023-04-25T01:25:24;1.60;;;1.50;;
19107;SDS011;9686;48.832;9.126;2023-04-25T01:27:50;2.37;;;1.67;;
19107;SDS011;9686;48.832;9.126;2023-04-25T01:30:15;2.07;;;1.87;;
19107;SDS011;9686;48.832;9.126;2023-04-25T01:32:41;2.10;;;1.90;;
19107;SDS011;9686;48.832;9.126;2023-04-25T01:35:08;2.63;;;1.60;;
19107;SDS011;9686;48.832;9.126;2023-04-25T01:37:38;1.90;;;1.50;;
19107;SDS011;9686;48.832;9.126;2023-04-25T01:40:08;3.00;;;1.80;;
19107;SDS011;9686;48.832;9.126;2023-04-25T01:42:35;3.07;;;1.53;;
19107;SDS011;9686;48.832;9.126;2023-04-25T01:45:02;1.97;;;1.77;;
19107;SDS011;9686;48.832;9.126;2023-04-25T01:47:28;2.20;;;1.93;;
19107;SDS011;9686;48.832;9.126;2023-04-25T01:49:54;2.30;;;2.07;;
19107;SDS011;9686;48.832;9.126;2023-04-25T01:52:20;2.30;;;2.10;;
19107;SDS011;9686;48.832;9.126;2023-04-25T01:54:45;2.07;;;1.83;;
19107;SDS011;9686;48.832;9.126;2023-04-25T01:57:11;2.77;;;1.70;;
19107;SDS011;9686;48.832;9.126;2023-04-25T01:59:36;2.30;;;2.10;;
19107;SDS011;9686;48.832;9.126;2023-04-25T02:02:02;3.30;;;2.10;;
19107;SDS011;9686;48.832;9.126;2023-04-25T02:04:29;4.10;;;2.20;;
19107;SDS011;9686;48.832;9.126;2023-04-25T02:06:54;3.27;;;1.87;;
19107;SDS011;9686;48.832;9.126;2023-04-25T02:09:20;2.90;;;2.13;;
19107;SDS011;9686;48.832;9.126;2023-04-25T02:11:45;2.20;;;2.00;;
19107;SDS011;9686;48.832;9.126;2023-04-25T02:14:10;2.27;;;1.93;;
19107;SDS011;9686;48.832;9.126;2023-04-25T02:16:36;3.70;;;2.30;;
19107;SDS011;9686;48.832;9.126;2023-04-25T02:19:01;3.40;;;2.20;;
19107;SDS011;9686;48.832;9.126;2023-04-25T02:21:27;2.23;;;2.03;;
19107;SDS011;9686;48.832;9.126;2023-04-25T02:23:52;3.87;;;2.40;;
19107;SDS011;9686;48.832;9.126;2023-04-25T02:26:17;4.03;;;2.30;;
19107;SDS011;9686;48.832;9.126;2023-04-25T02:28:42;3.37;;;2.50;;
19107;SDS011;9686;48.832;9.126;2023-04-25T02:31:08;2.57;;;2.33;;
19107;SDS011;9686;48.832;9.126;2023-04-25T02:33:33;3.27;;;2.33;;
19107;SDS011;9686;48.832;9.126;2023-04-25T02:35:59;3.30;;;2.20;;
19107;SDS011;9686;48.832;9.126;2023-04-25T02:38:24;4.43;;;2.73;;
19107;SDS011;9686;48.832;9.126;2023-04-25T02:40:50;3.67;;;2.30;;
19107;SDS011;9686;48.832;9.126;2023-04-25T02:43:15;5.63;;;2.80;;
19107;SDS011;9686;48.832;9.126;2023-04-25T02:45:41;2.90;;;2.60;;
19107;SDS011;9686;48.832;9.126;2023-04-25T02:48:06;2.80;;;2.47;;
19107;SDS011;9686;48.832;9.126;2023-04-25T02:50:32;4.17;;;2.50;;
19107;SDS011;9686;48.832;9.126;2023-04-25T02:52:57;3.00;;;2.43;;
19107;SDS011;9686;48.832;9.126;2023-04-25T02:55:22;4.93;;;2.50;;
19107;SDS011;9686;48.832;9.126;2023-04-25T02:57:47;4.27;;;2.60;;
19107;SDS011;9686;48.832;9.126;2023-04-25T03:00:13;3.03;;;2.53;;
19107;SDS011;9686;48.832;9.126;2023-04-25T03:02:39;3.57;;;2.30;;
19107;SDS011;9686;48.832;9.126;2023-04-25T03:05:05;2.77;;;2.23;;
19107;SDS011;9686;48.832;9.126;2023-04-25T03:07:30;3.77;;;2.70;;
19107;SDS011;9686;48.832;9.126;2023-04-25T03:09:56;3.47;;;2.53;;
19107;SDS011;9686;48.832;9.126;2023-04-25T03:12:21;2.93;;;2.30;;
19107;SDS011;9686;48.832;9.126;2023-04-25T03:14:47;3.17;;;2.30;;
19107;SDS011;9686;48.832;9.126;2023-04-25T03:17:12;2.73;;;2.40;;
19107;SDS011;9686;48.832;9.126;2023-04-25T03:19:37;2.77;;;2.57;;
19107;SDS011;9686;48.832;9.126;2023-04-25T03:22:03;3.03;;;2.73;;
19107;SDS011;9686;48.832;9.126;2023-04-25T03:24:28;2.93;;;2.53;;
19107;SDS011;9686;48.832;9.126;2023-04-25T03:26:53;3.17;;;2.37;;
19107;SDS011;9686;48.832;9.126;2023-04-25T03:29:19;2.80;;;2.40;;
19107;SDS011;9686;48.832;9.126;2023-04-25T03:31:44;3.17;;;2.63;;
19107;SDS011;9686;48.832;9.126;2023-04-25T03:34:10;2.90;;;2.70;;
19107;SDS011;9686;48.832;9.126;2023-04-25T03:36:35;3.17;;;2.50;;
19107;SDS011;9686;48.832;9.126;2023-04-25T03:39:01;3.23;;;2.77;;
19107;SDS011;9686;48.832;9.126;2023-04-25T03:41:26;3.80;;;2.47;;
19107;SDS011;9686;48.832;9.126;2023-04-25T03:43:51;3.40;;;2.83;;
19107;SDS011;9686;48.832;9.126;2023-04-25T03:46:17;2.23;;;2.03;;
19107;SDS011;9686;48.832;9.126;2023-04-25T03:48:42;3.53;;;2.40;;
19107;SDS011;9686;48.832;9.126;2023-04-25T03:51:07;3.27;;;2.30;;
19107;SDS011;9686;48.832;9.126;2023-04-25T03:53:32;3.23;;;2.73;;
19107;SDS011;9686;48.832;9.126;2023-04-25T03:55:58;4.87;;;2.60;;
19107;SDS011;9686;48.832;9.126;2023-04-25T03:58:23;2.80;;;2.30;;
19107;SDS011;9686;48.832;9.126;2023-04-25T04:00:49;4.80;;;2.30;;
19107;SDS011;9686;48.832;9.126;2023-04-25T04:03:14;2.97;;;2.67;;
19107;SDS011;9686;48.832;9.126;2023-04-25T04:05:40;3.80;;;2.73;;
19107;SDS011;9686;48.832;9.126;2023-04-25T04:08:05;4.67;;;2.67;;
19107;SDS011;9686;48.832;9.126;2023-04-25T04:10:31;4.90;;;2.40;;
19107;SDS011;9686;48.832;9.126;2023-04-25T04:12:56;5.07;;;2.87;;
19107;SDS011;9686;48.832;9.126;2023-04-25T04:15:22;3.07;;;2.60;;
19107;SDS011;9686;48.832;9.126;2023-04-25T04:17:48;3.30;;;2.50;;
19107;SDS011;9686;48.832;9.126;2023-04-25T04:20:13;3.43;;;2.80;;
19107;SDS011;9686;48.832;9.126;2023-04-25T04:22:39;3.07;;;2.50;;
19107;SDS011;9686;48.832;9.126;2023-04-25T04:25:04;3.23;;;2.50;;
19107;SDS011;9686;48.832;9.126;2023-04-25T04:27:31;4.77;;;3.00;;
19107;SDS011;9686;48.832;9.126;2023-04-25T04:29:56;5.67;;;2.80;;
19107;SDS011;9686;48.832;9.126;2023-04-25T04:32:22;5.43;;;3.03;;
19107;SDS011;9686;48.832;9.126;2023-04-25T04:34:48;3.93;;;2.70;;
19107;SDS011;9686;48.832;9.126;2023-04-25T04:37:14;3.57;;;2.70;;
19107;SDS011;9686;48.832;9.126;2023-04-25T04:39:39;3.77;;;2.97;;
19107;SDS011;9686;48.832;9.126;2023-04-25T04:42:05;4.83;;;2.50;;
19107;SDS011;9686;48.832;9.126;2023-04-25T04:44:31;3.20;;;2.90;;
19107;SDS011;9686;48.832;9.126;2023-04-25T04:47:00;3.10;;;2.80;;
19107;SDS011;9686;48.832;9.126;2023-04-25T04:49:25;4.50;;;2.97;;
19107;SDS011;9686;48.832;9.126;2023-04-25T04:51:51;3.63;;;2.90;;
19107;SDS011;9686;48.832;9.126;2023-04-25T04:54:17;4.67;;;3.00;;
19107;SDS011;9686;48.832;9.126;2023-04-25T04:56:42;6.10;;;2.97;;
19107;SDS011;9686;48.832;9.126;2023-04-25T04:59:08;5.70;;;2.87;;
19107;SDS011;9686;48.832;9.126;2023-04-25T05:01:33;7.93;;;3.13;;
19107;SDS011;9686;48.832;9.126;2023-04-25T05:04:02;6.30;;;3.10;;
19107;SDS011;9686;48.832;9.126;2023-04-25T05:06:28;4.43;;;2.90;;
19107;SDS011;9686;48.832;9.126;2023-04-25T05:08:57;5.57;;;3.30;;
19107;SDS011;9686;48.832;9.126;2023-04-25T05:11:23;5.60;;;2.87;;
19107;SDS011;9686;48.832;9.126;2023-04-25T05:13:52;4.73;;;3.57;;
19107;SDS011;9686;48.832;9.126;2023-04-25T05:16:17;4.63;;;3.37;;
19107;SDS011;9686;48.832;9.126;2023-04-25T05:18:43;3.93;;;3.00;;
19107;SDS011;9686;48.832;9.126;2023-04-25T05:21:08;3.83;;;3.40;;
19107;SDS011;9686;48.832;9.126;2023-04-25T05:23:33;4.13;;;3.43;;
19107;SDS011;9686;48.832;9.126;2023-04-25T05:25:59;3.67;;;3.07;;
19107;SDS011;9686;48.832;9.126;2023-04-25T05:28:24;4.23;;;3.83;;
19107;SDS011;9686;48.832;9.126;2023-04-25T05:30:50;5.57;;;4.10;;
19107;SDS011;9686;48.832;9.126;2023-04-25T05:33:16;8.13;;;4.57;;
19107;SDS011;9686;48.832;9.126;2023-04-25T05:35:41;8.07;;;4.87;;
19107;SDS011;9686;48.832;9.126;2023-04-25T05:38:07;6.60;;;4.03;;
19107;SDS011;9686;48.832;9.126;2023-04-25T05:40:32;8.77;;;4.40;;
19107;SDS011;9686;48.832;9.126;2023-04-25T05:42:58;5.80;;;4.10;;
19107;SDS011;9686;48.832;9.126;2023-04-25T05:45:23;4.90;;;4.40;;
19107;SDS011;9686;48.832;9.126;2023-04-25T05:47:48;4.83;;;4.33;;
19107;SDS011;9686;48.832;9.126;2023-04-25T05:50:13;6.87;;;4.77;;
19107;SDS011;9686;48.832;9.126;2023-04-25T05:52:39;4.80;;;4.37;;
19107;SDS011;9686;48.832;9.126;2023-04-25T05:55:04;5.27;;;4.77;;
19107;SDS011;9686;48.832;9.126;2023-04-25T05:57:30;5.47;;;4.87;;
19107;SDS011;9686;48.832;9.126;2023-04-25T05:59:56;5.50;;;5.00;;
19107;SDS011;9686;48.832;9.126;2023-04-25T06:02:21;6.13;;;5.07;;
19107;SDS011;9686;48.832;9.126;2023-04-25T06:04:50;6.10;;;5.20;;
19107;SDS011;9686;48.832;9.126;2023-04-25T06:07:16;4.97;;;4.47;;
19107;SDS011;9686;48.832;9.126;2023-04-25T06:09:42;5.43;;;4.37;;
19107;SDS011;9686;48.832;9.126;2023-04-25T06:12:08;5.33;;;4.43;;
19107;SDS011;9686;48.832;9.126;2023-04-25T06:14:33;5.37;;;4.83;;
19107;SDS011;9686;48.832;9.126;2023-04-25T06:16:59;5.47;;;4.50;;
19107;SDS011;9686;48.832;9.126;2023-04-25T06:19:24;4.70;;;4.17;;
19107;SDS011;9686;48.832;9.126;2023-04-25T06:21:50;4.27;;;3.87;;
19107;SDS011;9686;48.832;9.126;2023-04-25T06:24:15;5.43;;;4.13;;
19107;SDS011;9686;48.832;9.126;2023-04-25T06:26:40;4.60;;;4.10;;
19107;SDS011;9686;48.832;9.126;2023-04-25T06:29:05;4.90;;;3.57;;
19107;SDS011;9686;48.832;9.126;2023-04-25T06:31:31;4.33;;;3.80;;
19107;SDS011;9686;48.832;9.126;2023-04-25T06:33:59;4.97;;;4.07;;
19107;SDS011;9686;48.832;9.126;2023-04-25T06:36:24;5.40;;;4.40;;
19107;SDS011;9686;48.832;9.126;2023-04-25T06:38:51;4.40;;;4.00;;
19107;SDS011;9686;48.832;9.126;2023-04-25T06:41:17;4.27;;;3.87;;
19107;SDS011;9686;48.832;9.126;2023-04-25T06:43:42;6.07;;;4.70;;
19107;SDS011;9686;48.832;9.126;2023-04-25T06:46:08;6.17;;;4.93;;
19107;SDS011;9686;48.832;9.126;2023-04-25T06:48:33;10.00;;;5.37;;
19107;SDS011;9686;48.832;9.126;2023-04-25T06:50:58;7.60;;;5.17;;
19107;SDS011;9686;48.832;9.126;2023-04-25T06:53:24;8.17;;;5.07;;
19107;SDS011;9686;48.832;9.126;2023-04-25T06:55:49;4.87;;;4.03;;
19107;SDS011;9686;48.832;9.126;2023-04-25T06:58:15;4.10;;;3.70;;
19107;SDS011;9686;48.832;9.126;2023-04-25T07:00:40;5.27;;;4.30;;
19107;SDS011;9686;48.832;9.126;2023-04-25T07:03:05;4.40;;;4.00;;
19107;SDS011;9686;48.832;9.126;2023-04-25T07:05:30;6.60;;;4.30;;
19107;SDS011;9686;48.832;9.126;2023-04-25T07:07:56;4.33;;;3.93;;
19107;SDS011;9686;48.832;9.126;2023-04-25T07:10:21;5.00;;;4.33;;
19107;SDS011;9686;48.832;9.126;2023-04-25T07:12:46;5.47;;;4.20;;
19107;SDS011;9686;48.832;9.126;2023-04-25T07:15:12;4.60;;;4.20;;
19107;SDS011;9686;48.832;9.126;2023-04-25T07:17:37;4.87;;;4.00;;
19107;SDS011;9686;48.832;9.126;2023-04-25T07:20:03;4.87;;;3.83;;
19107;SDS011;9686;48.832;9.126;2023-04-25T07:22:30;4.93;;;4.43;;
19107;SDS011;9686;48.832;9.126;2023-04-25T07:24:56;4.60;;;4.20;;
19107;SDS011;9686;48.832;9.126;2023-04-25T07:27:21;4.37;;;3.97;;
19107;SDS011;9686;48.832;9.126;2023-04-25T07:29:47;4.50;;;4.10;;
19107;SDS011;9686;48.832;9.126;2023-04-25T07:32:12;5.80;;;4.20;;
19107;SDS011;9686;48.832;9.126;2023-04-25T07:34:38;4.40;;;4.00;;
19107;SDS011;9686;48.832;9.126;2023-04-25T07:37:04;6.03;;;4.47;;
19107;SDS011;9686;48.832;9.126;2023-04-25T07:39:30;5.87;;;4.67;;
19107;SDS011;9686;48.832;9.126;2023-04-25T07:41:56;5.93;;;4.23;;
19107;SDS011;9686;48.832;9.126;2023-04-25T07:44:23;5.77;;;4.43;;
19107;SDS011;9686;48.832;9.126;2023-04-25T07:46:49;5.90;;;4.47;;
19107;SDS011;9686;48.832;9.126;2023-04-25T07:49:14;5.90;;;4.47;;
19107;SDS011;9686;48.832;9.126;2023-04-25T07:51:40;6.77;;;4.33;;
19107;SDS011;9686;48.832;9.126;2023-04-25T07:54:06;4.93;;;4.10;;
19107;SDS011;9686;48.832;9.126;2023-04-25T07:56:31;4.73;;;4.20;;
19107;SDS011;9686;48.832;9.126;2023-04-25T07:58:57;6.40;;;3.90;;
19107;SDS011;9686;48.832;9.126;2023-04-25T08:01:22;4.83;;;4.33;;
19107;SDS011;9686;48.832;9.126;2023-04-25T08:03:47;5.13;;;4.00;;
19107;SDS011;9686;48.832;9.126;2023-04-25T08:06:13;4.77;;;4.33;;
19107;SDS011;9686;48.832;9.126;2023-04-25T08:08:38;6.10;;;4.37;;
19107;SDS011;9686;48.832;9.126;2023-04-25T08:11:03;5.30;;;4.13;;
19107;SDS011;9686;48.832;9.126;2023-04-25T08:13:29;5.33;;;4.20;;
19107;SDS011;9686;48.832;9.126;2023-04-25T08:15:54;5.50;;;4.23;;
19107;SDS011;9686;48.832;9.126;2023-04-25T08:18:20;4.50;;;4.10;;
19107;SDS011;9686;48.832;9.126;2023-04-25T08:20:45;5.20;;;4.70;;
19107;SDS011;9686;48.832;9.126;2023-04-25T08:23:10;5.93;;;4.40;;
19107;SDS011;9686;48.832;9.126;2023-04-25T08:25:36;5.27;;;4.77;;
19107;SDS011;9686;48.832;9.126;2023-04-25T08:28:01;5.20;;;4.70;;
19107;SDS011;9686;48.832;9.126;2023-04-25T08:30:28;7.00;;;5.40;;
19107;SDS011;9686;48.832;9.126;2023-04-25T08:32:53;5.80;;;5.20;;
19107;SDS011;9686;48.832;9.126;2023-04-25T08:35:19;5.53;;;4.90;;
19107;SDS011;9686;48.832;9.126;2023-04-25T08:37:45;7.90;;;5.23;;
19107;SDS011;9686;48.832;9.126;2023-04-25T08:40:14;6.30;;;5.30;;
19107;SDS011;9686;48.832;9.126;2023-04-25T08:42:40;4.93;;;3.90;;
19107;SDS011;9686;48.832;9.126;2023-04-25T08:45:07;5.40;;;4.90;;
19107;SDS011;9686;48.832;9.126;2023-04-25T08:47:33;6.20;;;4.70;;
19107;SDS011;9686;48.832;9.126;2023-04-25T08:49:59;5.03;;;4.53;;
19107;SDS011;9686;48.832;9.126;2023-04-25T08:52:27;5.10;;;4.50;;
19107;SDS011;9686;48.832;9.126;2023-04-25T08:54:55;6.30;;;4.93;;
19107;SDS011;9686;48.832;9.126;2023-04-25T08:57:22;4.93;;;4.43;;
19107;SDS011;9686;48.832;9.126;2023-04-25T08:59:48;6.33;;;4.87;;
19107;SDS011;9686;48.832;9.126;2023-04-25T09:02:14;7.07;;;5.13;;
19107;SDS011;9686;48.832;9.126;2023-04-25T09:04:43;4.97;;;4.43;;
19107;SDS011;9686;48.832;9.126;2023-04-25T09:07:08;5.73;;;4.63;;
19107;SDS011;9686;48.832;9.126;2023-04-25T09:09:34;4.80;;;4.40;;
19107;SDS011;9686;48.832;9.126;2023-04-25T09:12:00;4.77;;;4.27;;
19107;SDS011;9686;48.832;9.126;2023-04-25T09:14:26;5.37;;;4.37;;
19107;SDS011;9686;48.832;9.126;2023-04-25T09:19:24;5.47;;;4.43;;
19107;SDS011;9686;48.832;9.126;2023-04-25T09:21:50;5.23;;;4.47;;
19107;SDS011;9686;48.832;9.126;2023-04-25T09:24:16;4.90;;;4.13;;
19107;SDS011;9686;48.832;9.126;2023-04-25T09:26:44;6.07;;;4.20;;
19107;SDS011;9686;48.832;9.126;2023-04-25T09:29:09;5.20;;;4.20;;
19107;SDS011;9686;48.832;9.126;2023-04-25T09:31:35;5.97;;;4.30;;
19107;SDS011;9686;48.832;9.126;2023-04-25T09:34:01;4.30;;;3.90;;
19107;SDS011;9686;48.832;9.126;2023-04-25T09:36:27;4.63;;;4.23;;
19107;SDS011;9686;48.832;9.126;2023-04-25T09:38:53;5.57;;;4.40;;
19107;SDS011;9686;48.832;9.126;2023-04-25T09:41:22;5.07;;;4.30;;
19107;SDS011;9686;48.832;9.126;2023-04-25T09:43:48;7.13;;;4.67;;
19107;SDS011;9686;48.832;9.126;2023-04-25T09:46:15;5.27;;;4.33;;
19107;SDS011;9686;48.832;9.126;2023-04-25T09:48:43;5.50;;;4.53;;
19107;SDS011;9686;48.832;9.126;2023-04-25T09:51:14;5.43;;;4.87;;
19107;SDS011;9686;48.832;9.126;2023-04-25T09:53:43;8.93;;;4.83;;
19107;SDS011;9686;48.832;9.126;2023-04-25T09:56:11;5.10;;;4.60;;
19107;SDS011;9686;48.832;9.126;2023-04-25T09:58:38;6.53;;;4.20;;
19107;SDS011;9686;48.832;9.126;2023-04-25T10:01:07;4.87;;;3.10;;
19107;SDS011;9686;48.832;9.126;2023-04-25T10:03:34;4.40;;;3.03;;
19107;SDS011;9686;48.832;9.126;2023-04-25T10:06:01;6.23;;;4.20;;
19107;SDS011;9686;48.832;9.126;2023-04-25T10:08:32;7.53;;;4.43;;
19107;SDS011;9686;48.832;9.126;2023-04-25T10:11:00;4.30;;;3.87;;
19107;SDS011;9686;48.832;9.126;2023-04-25T10:13:27;4.93;;;3.67;;
19107;SDS011;9686;48.832;9.126;2023-04-25T10:15:54;4.47;;;4.07;;
19107;SDS011;9686;48.832;9.126;2023-04-25T10:18:20;6.37;;;4.20;;
19107;SDS011;9686;48.832;9.126;2023-04-25T10:20:46;4.60;;;4.10;;
19107;SDS011;9686;48.832;9.126;2023-04-25T10:23:12;3.93;;;3.37;;
19107;SDS011;9686;48.832;9.126;2023-04-25T10:25:40;5.10;;;3.20;;
19107;SDS011;9686;48.832;9.126;2023-04-25T10:28:06;5.67;;;3.30;;
19107;SDS011;9686;48.832;9.126;2023-04-25T10:30:32;7.30;;;2.90;;
19107;SDS011;9686;48.832;9.126;2023-04-25T10:32:58;6.17;;;4.90;;
19107;SDS011;9686;48.832;9.126;2023-04-25T10:35:25;7.13;;;5.80;;
19107;SDS011;9686;48.832;9.126;2023-04-25T10:38:10;12.80;;;6.87;;
19107;SDS011;9686;48.832;9.126;2023-04-25T10:40:38;9.63;;;7.30;;
19107;SDS011;9686;48.832;9.126;2023-04-25T10:46:01;8.97;;;5.70;;
19107;SDS011;9686;48.832;9.126;2023-04-25T10:48:27;6.67;;;5.83;;
19107;SDS011;9686;48.832;9.126;2023-04-25T10:51:11;8.00;;;6.33;;
19107;SDS011;9686;48.832;9.126;2023-04-25T10:53:41;8.27;;;5.93;;
19107;SDS011;9686;48.832;9.126;2023-04-25T10:56:18;6.90;;;6.17;;
19107;SDS011;9686;48.832;9.126;2023-04-25T10:58:45;6.33;;;5.47;;
19107;SDS011;9686;48.832;9.126;2023-04-25T11:01:12;6.17;;;4.23;;
19107;SDS011;9686;48.832;9.126;2023-04-25T11:03:42;7.03;;;4.40;;
19107;SDS011;9686;48.832;9.126;2023-04-25T11:06:15;4.57;;;3.23;;
19107;SDS011;9686;48.832;9.126;2023-04-25T11:09:02;5.73;;;3.30;;
19107;SDS011;9686;48.832;9.126;2023-04-25T11:11:33;7.17;;;4.40;;
19107;SDS011;9686;48.832;9.126;2023-04-25T11:14:01;4.77;;;3.67;;
19107;SDS011;9686;48.832;9.126;2023-04-25T11:16:27;4.40;;;4.00;;
19107;SDS011;9686;48.832;9.126;2023-04-25T11:18:52;4.50;;;4.07;;
19107;SDS011;9686;48.832;9.126;2023-04-25T11:21:17;6.23;;;3.80;;
19107;SDS011;9686;48.832;9.126;2023-04-25T11:23:44;4.80;;;4.30;;
19107;SDS011;9686;48.832;9.126;2023-04-25T11:26:11;4.10;;;3.60;;
19107;SDS011;9686;48.832;9.126;2023-04-25T11:28:36;4.00;;;3.60;;
19107;SDS011;9686;48.832;9.126;2023-04-25T11:31:02;5.07;;;3.93;;
19107;SDS011;9686;48.832;9.126;2023-04-25T11:33:29;6.20;;;4.10;;
19107;SDS011;9686;48.832;9.126;2023-04-25T11:35:54;5.40;;;4.43;;
19107;SDS011;9686;48.832;9.126;2023-04-25T11:38:21;8.90;;;4.80;;
19107;SDS011;9686;48.832;9.126;2023-04-25T11:40:51;4.83;;;3.90;;
19107;SDS011;9686;48.832;9.126;2023-04-25T11:43:17;4.73;;;4.17;;
19107;SDS011;9686;48.832;9.126;2023-04-25T11:45:48;5.33;;;4.67;;
19107;SDS011;9686;48.832;9.126;2023-04-25T11:48:15;4.73;;;4.23;;
19107;SDS011;9686;48.832;9.126;2023-04-25T11:50:41;4.60;;;3.90;;
19107;SDS011;9686;48.832;9.126;2023-04-25T11:53:06;5.43;;;4.93;;
19107;SDS011;9686;48.832;9.126;2023-04-25T11:55:33;5.80;;;4.57;;
19107;SDS011;9686;48.832;9.126;2023-04-25T11:57:59;7.00;;;5.33;;
19107;SDS011;9686;48.832;9.126;2023-04-25T12:00:26;7.47;;;5.53;;
19107;SDS011;9686;48.832;9.126;2023-04-25T12:02:52;11.67;;;9.17;;
19107;SDS011;9686;48.832;9.126;2023-04-25T12:05:19;8.17;;;5.83;;
19107;SDS011;9686;48.832;9.126;2023-04-25T12:07:45;6.73;;;5.47;;
19107;SDS011;9686;48.832;9.126;2023-04-25T12:10:12;8.87;;;5.70;;
19107;SDS011;9686;48.832;9.126;2023-04-25T12:12:41;7.63;;;6.37;;
19107;SDS011;9686;48.832;9.126;2023-04-25T12:15:10;6.77;;;5.53;;
19107;SDS011;9686;48.832;9.126;2023-04-25T12:17:56;7.80;;;6.07;;
19107;SDS011;9686;48.832;9.126;2023-04-25T12:20:24;9.77;;;6.70;;
19107;SDS011;9686;48.832;9.126;2023-04-25T12:22:51;10.17;;;7.20;;
19107;SDS011;9686;48.832;9.126;2023-04-25T12:31:00;9.67;;;7.33;;
19107;SDS011;9686;48.832;9.126;2023-04-25T12:33:27;9.27;;;6.93;;
19107;SDS011;9686;48.832;9.126;2023-04-25T12:35:57;8.83;;;7.07;;
19107;SDS011;9686;48.832;9.126;2023-04-25T12:38:27;8.03;;;6.93;;
19107;SDS011;9686;48.832;9.126;2023-04-25T12:40:55;10.13;;;7.77;;
19107;SDS011;9686;48.832;9.126;2023-04-25T12:43:21;9.70;;;7.17;;
19107;SDS011;9686;48.832;9.126;2023-04-25T12:45:50;8.47;;;6.70;;
19107;SDS011;9686;48.832;9.126;2023-04-25T12:48:16;8.87;;;7.33;;
19107;SDS011;9686;48.832;9.126;2023-04-25T12:50:42;9.73;;;7.47;;
19107;SDS011;9686;48.832;9.126;2023-04-25T12:53:08;8.47;;;7.03;;
19107;SDS011;9686;48.832;9.126;2023-04-25T12:55:33;8.63;;;6.80;;
19107;SDS011;9686;48.832;9.126;2023-04-25T12:57:59;7.00;;;5.77;;
19107;SDS011;9686;48.832;9.126;2023-04-25T13:00:24;7.57;;;5.90;;
19107;SDS011;9686;48.832;9.126;2023-04-25T13:02:51;8.03;;;6.50;;
19107;SDS011;9686;48.832;9.126;2023-04-25T13:05:17;8.77;;;6.93;;
19107;SDS011;9686;48.832;9.126;2023-04-25T13:07:42;8.67;;;7.00;;
19107;SDS011;9686;48.832;9.126;2023-04-25T13:10:07;8.50;;;6.77;;
19107;SDS011;9686;48.832;9.126;2023-04-25T13:12:33;8.70;;;7.03;;
19107;SDS011;9686;48.832;9.126;2023-04-25T13:14:58;10.20;;;7.33;;
19107;SDS011;9686;48.832;9.126;2023-04-25T13:17:24;10.17;;;7.70;;
19107;SDS011;9686;48.832;9.126;2023-04-25T13:19:49;9.00;;;7.00;;
19107;SDS011;9686;48.832;9.126;2023-04-25T13:22:14;11.10;;;7.67;;
19107;SDS011;9686;48.832;9.126;2023-04-25T13:24:41;11.97;;;7.90;;
19107;SDS011;9686;48.832;9.126;2023-04-25T13:27:07;10.27;;;8.70;;
19107;SDS011;9686;48.832;9.126;2023-04-25T13:29:33;9.93;;;8.43;;
19107;SDS011;9686;48.832;9.126;2023-04-25T13:32:00;12.57;;;9.40;;
19107;SDS011;9686;48.832;9.126;2023-04-25T13:34:26;12.67;;;9.30;;
19107;SDS011;9686;48.832;9.126;2023-04-25T13:36:52;11.87;;;9.53;;
19107;SDS011;9686;48.832;9.126;2023-04-25T13:39:17;13.77;;;10.80;;
19107;SDS011;9686;48.832;9.126;2023-04-25T13:41:43;13.70;;;10.40;;
19107;SDS011;9686;48.832;9.126;2023-04-25T13:44:09;12.80;;;9.77;;
19107;SDS011;9686;48.832;9.126;2023-04-25T13:46:38;14.13;;;9.87;;
19107;SDS011;9686;48.832;9.126;2023-04-25T13:49:03;10.83;;;9.40;;
19107;SDS011;9686;48.832;9.126;2023-04-25T13:51:29;11.80;;;8.03;;
19107;SDS011;9686;48.832;9.126;2023-04-25T13:53:56;12.27;;;8.63;;
19107;SDS011;9686;48.832;9.126;2023-04-25T13:56:23;11.60;;;8.77;;
19107;SDS011;9686;48.832;9.126;2023-04-25T13:58:51;11.30;;;8.37;;
19107;SDS011;9686;48.832;9.126;2023-04-25T14:01:17;13.13;;;9.00;;
19107;SDS011;9686;48.832;9.126;2023-04-25T14:03:43;11.57;;;8.33;;
19107;SDS011;9686;48.832;9.126;2023-04-25T14:06:09;8.10;;;7.10;;
19107;SDS011;9686;48.832;9.126;2023-04-25T14:08:34;11.97;;;7.63;;
19107;SDS011;9686;48.832;9.126;2023-04-25T14:11:00;10.13;;;7.90;;
19107;SDS011;9686;48.832;9.126;2023-04-25T14:13:25;9.97;;;7.70;;
19107;SDS011;9686;48.832;9.126;2023-04-25T14:15:51;9.47;;;6.50;;
19107;SDS011;9686;48.832;9.126;2023-04-25T14:18:16;7.10;;;6.37;;
19107;SDS011;9686;48.832;9.126;2023-04-25T14:20:42;9.07;;;6.17;;
19107;SDS011;9686;48.832;9.126;2023-04-25T14:23:07;7.53;;;5.77;;
19107;SDS011;9686;48.832;9.126;2023-04-25T14:25:32;8.57;;;5.40;;
19107;SDS011;9686;48.832;9.126;2023-04-25T14:27:58;6.93;;;5.33;;
19107;SDS011;9686;48.832;9.126;2023-04-25T14:30:23;5.63;;;5.10;;
19107;SDS011;9686;48.832;9.126;2023-04-25T14:32:49;5.73;;;5.17;;
19107;SDS011;9686;48.832;9.126;2023-04-25T14:35:14;8.97;;;6.00;;
19107;SDS011;9686;48.832;9.126;2023-04-25T14:37:40;6.77;;;6.03;;
19107;SDS011;9686;48.832;9.126;2023-04-25T14:40:05;6.87;;;6.00;;
19107;SDS011;9686;48.832;9.126;2023-04-25T14:42:33;7.40;;;6.13;;
19107;SDS011;9686;48.832;9.126;2023-04-25T14:44:59;10.90;;;5.97;;
19107;SDS011;9686;48.832;9.126;2023-04-25T14:47:24;6.63;;;5.97;;
19107;SDS011;9686;48.832;9.126;2023-04-25T14:49:49;7.97;;;6.30;;
19107;SDS011;9686;48.832;9.126;2023-04-25T14:52:19;6.50;;;5.80;;
19107;SDS011;9686;48.832;9.126;2023-04-25T14:54:44;7.93;;;5.77;;
19107;SDS011;9686;48.832;9.126;2023-04-25T14:57:10;7.80;;;6.40;;
19107;SDS011;9686;48.832;9.126;2023-04-25T14:59:36;9.30;;;6.97;;
19107;SDS011;9686;48.832;9.126;2023-04-25T15:02:01;8.90;;;7.10;;
19107;SDS011;9686;48.832;9.126;2023-04-25T15:04:27;7.77;;;6.03;;